Flight Track Log - Related Links

Times and Time Zones

All times are in EDT time to prevent confusion due to time zone crossing. See the JNH9 flight status page for this flight to view local times or setup timezone preferences in your user account.

Time Position Orientation Groundspeed Altitude Reporting Facility
EDT Latitude Longitude Course Direction KTS MPH feet Rate Location/Type
Tue 07:54:46 AM 41.2927 -105.4877 283° West  Level FlightAware Approximate
Tue 07:59:46 AM 41.2782 -105.2996 280° West  Level FlightAware Approximate
Tue 08:00:34 AM 41.3342 -105.7322 79° East 315 362 13,900  Level Denver Center
Tue 08:01:34 AM 41.3503 -105.6242 97° East 144 166 16,600 3,300 Climbing Denver Center
Tue 08:02:34 AM 41.3389 -105.5028 98° East 317 365 20,500 3,650 Climbing Denver Center
Tue 08:03:34 AM 41.3253 -105.3731 96° East 343 395 23,900 2,800 Climbing Denver Center
Tue 08:04:34 AM 41.3133 -105.2211 97° East 363 418 26,100 2,000 Climbing Denver Center
Tue 08:05:34 AM 41.2989 -105.0694 83° East 394 453 27,900 1,800 Climbing Denver Center
Tue 08:06:34 AM 41.3119 -104.9281 80° East 411 473 29,700 1,800 Climbing Denver Center
Tue 08:07:34 AM 41.3344 -104.7533 83° East 430 495 31,500 1,550 Climbing Denver Center
Tue 08:08:34 AM 41.3486 -104.5869 84° East 448 516 32,800 1,300 Climbing Denver Center
Tue 08:09:34 AM 41.3622 -104.4150 84° East 461 531 34,100 1,350 Climbing Denver Center
Tue 08:10:34 AM 41.3758 -104.2542 84° East 474 545 35,500 1,600 Climbing Denver Center
Tue 08:11:34 AM 41.3908 -104.0600 84° East 485 558 37,300 1,550 Climbing Denver Center
Tue 08:12:34 AM 41.4036 -103.8850 85° East 478 550 38,600 1,050 Climbing Denver Center
Tue 08:13:34 AM 41.4147 -103.7267 87° East 478 550 39,400 750 Climbing Denver Center
Tue 08:14:34 AM 41.4228 -103.5464 87° East 487 560 40,100 800 Climbing Denver Center
Tue 08:15:34 AM 41.4300 -103.3467 89° East 482 555 41,000 450 Climbing Denver Center
Tue 08:16:34 AM 41.4333 -103.1664 87° East 488 562 41,000 50 Level Denver Center
Tue 08:17:34 AM 41.4389 -102.9944 87° East 498 573 41,100 550 Climbing Denver Center
Tue 08:18:34 AM 41.4469 -102.7889 90° East 504 580 42,100 1,000 Climbing Denver Center
Tue 08:19:34 AM 41.4475 -102.6114 88° East 494 568 43,100 850 Climbing Denver Center
Tue 08:20:34 AM 41.4525 -102.4533 88° East 478 550 43,800 650 Climbing Denver Center
Tue 08:21:34 AM 41.4567 -102.2728 89° East 478 550 44,400 600 Climbing Denver Center
Tue 08:22:34 AM 41.4600 -102.0842 89° East 473 544 45,000 300 Climbing Denver Center
Tue 08:23:34 AM 41.4617 -101.9122 89° East 467 537 45,000  Level Denver Center
Tue 08:24:34 AM 41.4636 -101.7511 88° East 467 537 45,000  Level Denver Center
Tue 08:25:34 AM 41.4689 -101.5733 89° East 477 549 45,000  Level Denver Center
Tue 08:26:34 AM 41.4706 -101.3708 89° East 483 556 45,000  Level Denver Center
Tue 08:27:34 AM 41.4728 -101.1906 89° East 483 556 45,000  Level Denver Center
Tue 08:28:34 AM 41.4753 -101.0183 89° East 498 573 45,000  Level Denver Center
Tue 08:29:34 AM 41.4769 -100.8381 90° East 498 573 45,000  Level Denver Center
Tue 08:30:34 AM 41.4772 -100.6328 89° East 498 573 45,000  Level Denver Center
Tue 08:31:34 AM 41.4803 -100.4467 90° East 498 573 45,000  Level Denver Center
Tue 08:32:34 AM 41.4808 -100.2581 90° East 498 573 45,000  Level Denver Center
Tue 08:33:34 AM 41.4797 -100.0889 90° East 498 573 45,000  Level Denver Center
Tue 08:34:34 AM 41.4806 -99.8806 89° East 507 583 45,000  Level Denver Center
Tue 08:35:34 AM 41.4822 -99.6892 91° East 512 589 45,000  Level Denver Center
Tue 08:37:58 AM 41.4783 -99.2531 89° East 518 596 45,000  Level Minneapolis Center
Tue 08:38:57 AM 41.4803 -99.0594 92° East 518 596 45,000  Level Minneapolis Center
Tue 08:39:57 AM 41.4756 -98.8650 90° East 518 596 45,000  Level Minneapolis Center
Tue 08:40:57 AM 41.4747 -98.6683 90° East 518 596 45,000  Level Minneapolis Center
Tue 08:41:58 AM 41.4733 -98.4772 92° East 523 602 45,000  Level Minneapolis Center
Tue 08:42:57 AM 41.4675 -98.2831 92° East 523 602 45,000  Level Minneapolis Center
Tue 08:43:58 AM 41.4619 -98.0722 92° East 518 596 45,000  Level Minneapolis Center
Tue 08:44:57 AM 41.4575 -97.8811 91° East 518 596 45,000  Level Minneapolis Center
Tue 08:45:58 AM 41.4547 -97.6844 92° East 518 596 45,000  Level Minneapolis Center
Tue 08:46:57 AM 41.4494 -97.4931 91° East 518 596 45,000  Level Minneapolis Center
Tue 08:47:58 AM 41.4464 -97.2964 92° East 518 596 45,000  Level Minneapolis Center
Tue 08:48:58 AM 41.4406 -97.0997 92° East 523 602 45,000  Level Minneapolis Center
Tue 08:49:57 AM 41.4364 -96.9031 92° East 523 602 45,000  Level Minneapolis Center
Tue 08:50:58 AM 41.4319 -96.7119 92° East 523 602 45,000  Level Minneapolis Center
Tue 08:51:58 AM 41.4272 -96.5183 93° East 523 602 45,000  Level Minneapolis Center
Tue 08:52:57 AM 41.4200 -96.3217 92° East 518 596 45,000  Level Minneapolis Center
Tue 08:53:57 AM 41.4147 -96.1278 92° East 525 604 45,000  Level Minneapolis Center
Tue 08:54:58 AM 41.4108 -95.9397 95° East 519 597 45,000  Level Minneapolis Center
Tue 08:55:58 AM 41.3983 -95.7486 92° East 519 597 45,000  Level Minneapolis Center
Tue 08:56:57 AM 41.3936 -95.5689 93° East 519 597 45,000  Level Minneapolis Center
Tue 08:57:57 AM 41.3847 -95.3750 93° East 519 597 45,000  Level Minneapolis Center
Tue 08:58:58 AM 41.3775 -95.1817 93° East 519 597 45,000  Level Minneapolis Center
Tue 08:59:58 AM 41.3700 -94.9908 92° East 519 597 45,000  Level Minneapolis Center
Tue 09:00:57 AM 41.3644 -94.7972 94° East 519 597 45,000  Level Minneapolis Center
Tue 09:01:57 AM 41.3542 -94.6039 93° East 519 597 45,000  Level Minneapolis Center
Tue 09:02:58 AM 41.3456 -94.4133 94° East 519 597 45,000  Level Minneapolis Center
Tue 09:03:57 AM 41.3347 -94.2197 93° East 519 597 45,000  Level Minneapolis Center
Tue 09:06:02 AM 41.3156 -93.8014 95° East 519 597 45,000  Level Chicago Center
Tue 09:07:02 AM 41.3019 -93.6097 93° East 519 597 45,000  Level Chicago Center
Tue 09:08:02 AM 41.2944 -93.4131 95° East 524 603 45,000  Level Chicago Center
Tue 09:09:02 AM 41.2825 -93.2189 96° East 524 603 45,000  Level Chicago Center
Tue 09:10:02 AM 41.2681 -93.0272 93° East 522 601 45,000  Level Chicago Center
Tue 09:11:02 AM 41.2594 -92.8333 95° East 522 601 45,000  Level Chicago Center
Tue 09:12:02 AM 41.2464 -92.6392 95° East 522 601 45,000  Level Chicago Center
Tue 09:13:02 AM 41.2331 -92.4481 95° East 522 601 45,000  Level Chicago Center
Tue 09:14:02 AM 41.2194 -92.2542 95° East 522 601 45,000  Level Chicago Center
Tue 09:15:02 AM 41.2075 -92.0575 96° East 522 601 45,000  Level Chicago Center
Tue 09:16:02 AM 41.1931 -91.8667 95° East 522 601 45,000  Level Chicago Center
Tue 09:17:02 AM 41.1806 -91.6728 97° East 522 601 45,000  Level Chicago Center
Tue 09:18:02 AM 41.1650 -91.5069 95° East 522 601 45,000  Level Chicago Center
Tue 09:19:02 AM 41.1517 -91.3161 95° East 522 601 45,000  Level Chicago Center
Tue 09:20:02 AM 41.1383 -91.1228 96° East 522 601 45,000  Level Chicago Center
Tue 09:21:02 AM 41.1222 -90.9294 96° East 522 601 45,000  Level Chicago Center
Tue 09:22:02 AM 41.1081 -90.7389 97° East 522 601 45,000  Level Chicago Center
Tue 09:23:02 AM 41.0914 -90.5483 95° East 522 601 45,000  Level Chicago Center
Tue 09:24:02 AM 41.0786 -90.3581 97° East 522 601 45,000  Level Chicago Center
Tue 09:25:02 AM 41.0614 -90.1650 97° East 522 601 45,000  Level Chicago Center
Tue 09:26:02 AM 41.0439 -89.9747 96° East 522 601 45,000  Level Chicago Center
Tue 09:27:02 AM 41.0281 -89.7847 96° East 522 601 45,000  Level Chicago Center
Tue 09:28:02 AM 41.0119 -89.5947 97° East 522 601 45,000  Level Chicago Center
Tue 09:29:02 AM 40.9914 -89.3858 96° East 522 601 45,000  Level Chicago Center
Tue 09:30:02 AM 40.9747 -89.1903 98° East 522 601 45,000  Level Chicago Center
Tue 09:31:02 AM 40.9553 -89.0036 98° East 522 601 45,000  Level Chicago Center
Tue 09:32:02 AM 40.9358 -88.8111 97° East 522 601 45,000  Level Chicago Center
Tue 09:33:02 AM 40.9181 -88.6192 98° East 522 601 45,000  Level Chicago Center
Tue 09:34:02 AM 40.8981 -88.4325 97° East 522 601 45,000  Level Chicago Center
Tue 09:35:02 AM 40.8797 -88.2433 98° East 522 601 45,000  Level Chicago Center
Tue 09:36:02 AM 40.8589 -88.0542 97° East 522 601 45,000  Level Chicago Center
Tue 09:37:02 AM 40.8400 -87.8653 98° East 522 601 45,000  Level Chicago Center
Tue 09:38:02 AM 40.8206 -87.6761 98° East 522 601 45,000  Level Chicago Center
Tue 09:39:02 AM 40.8011 -87.4875 101° East 522 601 45,000  Level Chicago Center
Tue 09:40:02 AM 40.7750 -87.3072 99° East 511 588 45,000  Level Chicago Center
Tue 09:41:02 AM 40.7525 -87.1133 97° East 518 596 45,000  Level Chicago Center
Tue 09:42:02 AM 40.7342 -86.9275 98° East 518 596 45,000  Level Chicago Center
Tue 09:43:02 AM 40.7133 -86.7419 97° East 516 594 45,000  Level Chicago Center
Tue 09:44:02 AM 40.6942 -86.5511 99° East 516 594 45,000  Level Chicago Center
Tue 09:45:02 AM 40.6708 -86.3658 99° East 517 595 45,000  Level Chicago Center
Tue 09:46:02 AM 40.6497 -86.1972 99° East 523 602 45,000  Level Chicago Center
Tue 09:47:02 AM 40.6275 -86.0067 99° East 518 596 45,000  Level Chicago Center
Tue 09:48:53 AM 40.5825 -85.6558 100° East 540 621 45,000  Level Indianapolis Center
Tue 09:49:53 AM 40.5567 -85.4639 99° East 535 616 45,000  Level Indianapolis Center
Tue 09:50:53 AM 40.5344 -85.2747 100° East 535 616 45,000  Level Indianapolis Center
Tue 09:51:53 AM 40.5061 -85.0639 101° East 530 610 45,000  Level Indianapolis Center
Tue 09:52:53 AM 40.4772 -84.8722 100° East 526 605 45,000  Level Indianapolis Center
Tue 09:53:53 AM 40.4519 -84.6836 105° East 526 605 45,000  Level Indianapolis Center
Tue 09:54:53 AM 40.4181 -84.5194 123° Southeast 520 598 45,000  Level Indianapolis Center
Tue 09:55:53 AM 40.3358 -84.3547 124° Southeast 520 598 45,000  Level Indianapolis Center
Tue 09:56:53 AM 40.2514 -84.1933 125° Southeast 541 623 45,000  Level Indianapolis Center
Tue 09:57:53 AM 40.1667 -84.0325 124° Southeast 541 623 45,000  Level Indianapolis Center
Tue 09:58:53 AM 40.0839 -83.8744 125° Southeast 541 623 45,000 -50 Level Indianapolis Center
Tue 09:59:53 AM 39.9989 -83.7169 123° Southeast 541 623 44,900  Descending Indianapolis Center
Tue 10:00:53 AM 39.9092 -83.5381 125° Southeast 541 623 45,000 50 Climbing Indianapolis Center
Tue 10:01:53 AM 39.8236 -83.3786 127° Southeast 541 623 45,000  Level Indianapolis Center
Tue 10:02:53 AM 39.7419 -83.2356 125° Southeast 550 633 45,000  Level Indianapolis Center
Tue 10:03:53 AM 39.6581 -83.0825 125° Southeast 540 621 45,000  Level Indianapolis Center
Tue 10:04:53 AM 39.5719 -82.9239 125° Southeast 532 612 45,000  Level Indianapolis Center
Tue 10:05:53 AM 39.4875 -82.7686 126° Southeast 532 612 45,000  Level Indianapolis Center
Tue 10:06:53 AM 39.4008 -82.6139 126° Southeast 532 612 45,000  Level Indianapolis Center
Tue 10:07:53 AM 39.3225 -82.4725 124° Southeast 532 612 45,000  Level Indianapolis Center
Tue 10:08:53 AM 39.2356 -82.3050 126° Southeast 527 606 45,000  Level Indianapolis Center
Tue 10:09:53 AM 39.1481 -82.1486 126° Southeast 532 612 45,000  Level Indianapolis Center
Tue 10:10:53 AM 39.0608 -81.9953 126° Southeast 537 618 45,000  Level Indianapolis Center
Tue 10:11:53 AM 38.9753 -81.8422 126° Southeast 537 618 45,000 -250 Level Indianapolis Center
Tue 10:12:53 AM 38.8917 -81.6919 127° Southeast 526 605 44,500 -1,150 Descending Indianapolis Center
Tue 10:13:53 AM 38.7928 -81.5242 127° Southeast 526 605 42,700 -1,550 Descending Indianapolis Center
Tue 10:14:53 AM 38.7003 -81.3644 126° Southeast 533 613 41,400 -850 Descending Indianapolis Center
Tue 10:15:53 AM 38.6097 -81.2022 127° Southeast 554 638 41,000 -785 Descending Indianapolis Center
Tue 10:18:04 AM 38.4117 -80.8678 127° Southeast 559 643 38,900 -1,048 Descending Washington Center
Tue 10:19:02 AM 38.3261 -80.7239 125° Southeast 570 656 37,700 -1,169 Descending Washington Center
Tue 10:20:02 AM 38.2369 -80.5644 126° Southeast 570 656 36,600 -1,475 Descending Washington Center
Tue 10:21:04 AM 38.1475 -80.4106 110° East 563 648 34,700 -1,967 Descending Washington Center
Tue 10:22:04 AM 38.0978 -80.2411 101° East 523 602 32,600 -1,950 Descending Washington Center
Tue 10:23:04 AM 38.0658 -80.0414 102° East 521 600 30,800 -1,765 Descending Washington Center
Tue 10:24:03 AM 38.0347 -79.8603 102° East 521 600 29,100 -1,650 Descending Washington Center
Tue 10:25:04 AM 38.0036 -79.6792 102° East 521 600 27,500 -1,041 Descending Washington Center
Tue 10:26:04 AM 37.9739 -79.5036 102° East 515 593 27,000 -350 Descending Washington Center
Tue 10:27:04 AM 37.9439 -79.3308 103° East 505 581 26,800 -864 Descending Washington Center
Tue 10:28:02 AM 37.9117 -79.1608 107° East 500 575 25,300 -1,261 Descending Washington Center
Tue 10:29:03 AM 37.8744 -79.0092 109° East 500 575 24,300 -942 Descending Washington Center
Tue 10:30:03 AM 37.8289 -78.8442 110° East 500 575 23,400 -942 Descending Washington Center
Tue 10:31:04 AM 37.7811 -78.6817 110° East 489 563 22,400 -992 Descending Washington Center
Tue 10:32:04 AM 37.7389 -78.5328 110° East 476 548 21,400 -712 Descending Washington Center
Tue 10:33:02 AM 37.6886 -78.3631 110° East 463 533 21,000 -203 Descending Washington Center
Tue 10:34:02 AM 37.6461 -78.2119 113° Southeast 458 527 21,000  Level Washington Center
Tue 10:35:03 AM 37.5972 -78.0686 109° East 453 521 21,000 -49 Level Washington Center
Tue 10:36:04 AM 37.5603 -77.9339 106° East 453 521 20,900 -756 Descending Washington Center
Tue 10:37:02 AM 37.5256 -77.7811 95° East 453 521 19,500 -1,220 Descending Washington Center
Tue 10:38:02 AM 37.5156 -77.6289 95° East 434 499 18,500 -942 Descending Washington Center
Tue 10:39:03 AM 37.5056 -77.4819 95° East 428 493 17,600 -744 Descending Washington Center
Tue 10:40:03 AM 37.4953 -77.3350 96° East 423 487 17,000 -298 Descending Washington Center
Tue 10:41:04 AM 37.4847 -77.1989 96° East 411 473 17,000 -439 Level Washington Center
Tue 10:41:25 AM 37.4792 -77.1358 94° East 389 448 16,400 -1,759 Descending Washington Center
Tue 10:42:02 AM 37.4742 -77.0494 116° Southeast 388 447 15,300 -2,093 Descending Washington Center
Tue 10:42:08 AM 37.4700 -77.0389 94° East 397 457 14,900 -2,597 Descending Washington Center
Tue 10:43:09 AM 37.4631 -76.9053 95° East 380 437 12,400 -1,884 Descending Washington Center
Tue 10:44:09 AM 37.4542 -76.7822 140° Southeast 347 399 11,100 -1,632 Descending Washington Center
Tue 10:45:03 AM 37.3961 -76.7211 179° South 301 346 9,300 -2,190 Descending Washington Center
Tue 10:45:12 AM 37.3794 -76.7208 160° South 317 365 8,800 -2,164 Descending Washington Center
Tue 10:46:04 AM 37.3089 -76.6886 187° South 286 329 7,100 -2,066 Descending Washington Center
Tue 10:46:13 AM 37.2942 -76.6908 171° South 319 367 6,700 -943 Descending Washington Center
Tue 10:47:14 AM 37.2131 -76.6742 168° South 280 322 6,000 -382 Descending Washington Center
Tue 10:48:03 AM 37.1528 -76.6575 196° South 279 321 6,000  Level Washington Center
Tue 10:48:15 AM 37.1381 -76.6628 203° Southwest 257 296 6,000 -400 Level Washington Center
Tue 10:49:03 AM 37.1003 -76.6831 251° West 231 266 5,600 -600 Descending Washington Center
Tue 10:49:15 AM 37.0961 -76.6986 224° Southwest 201 231 5,400 -885 Descending Washington Center
Tue 10:50:04 AM 37.0644 -76.7372 232° Southwest 202 232 4,700 -984 Descending Washington Center
Tue 10:50:16 AM 37.0581 -76.7475 154° Southeast 199 229 4,400 -984 Descending Washington Center
Tue 10:51:05 AM 37.0144 -76.7208 116° Southeast 176 203 3,700 -787 Descending Washington Center
Tue 10:51:17 AM 37.0103 -76.7103 89° East 222 255 3,600 -892 Descending Washington Center
Tue 10:52:19 AM 37.0111 -76.6350 89° East 207 238 2,600 -968 Descending Washington Center

Login

Don't have an account? Register now (free) for customized features, flight alerts, and more!